createdAt,value
2022-11-24T00:01:14.092Z,2.11
2022-11-24T00:03:41.286Z,1.90
2022-11-24T00:06:10.870Z,1.80
2022-11-24T00:08:40.163Z,2.07
2022-11-24T00:11:09.509Z,2.01
2022-11-24T00:13:36.981Z,2.06
2022-11-24T00:16:11.138Z,2.45
2022-11-24T00:18:40.070Z,3.31
2022-11-24T00:21:06.809Z,3.71
2022-11-24T00:23:33.989Z,3.96
2022-11-24T00:26:10.504Z,4.16
2022-11-24T00:28:38.581Z,4.28
2022-11-24T00:31:17.424Z,4.11
2022-11-24T00:33:45.497Z,4.29
2022-11-24T00:36:12.273Z,4.48
2022-11-24T00:38:38.998Z,4.67
2022-11-24T00:41:06.027Z,4.49
2022-11-24T00:43:33.674Z,4.75
2022-11-24T00:46:00.614Z,4.32
2022-11-24T00:48:27.399Z,3.94
2022-11-24T00:51:03.115Z,4.19
2022-11-24T00:53:30.546Z,3.78
2022-11-24T00:55:57.663Z,3.32
2022-11-24T00:58:25.639Z,3.13
2022-11-24T01:00:52.838Z,3.36
2022-11-24T01:03:20.750Z,3.02
2022-11-24T01:05:47.474Z,3.23
2022-11-24T01:08:14.281Z,3.30
2022-11-24T01:10:40.972Z,3.32
2022-11-24T01:13:07.638Z,3.39
2022-11-24T01:15:37.045Z,3.54
2022-11-24T01:18:04.957Z,3.47
2022-11-24T01:20:32.422Z,3.80
2022-11-24T01:22:59.112Z,3.49
2022-11-24T01:25:25.840Z,3.41
2022-11-24T01:27:52.514Z,3.28
2022-11-24T01:30:19.311Z,3.60
2022-11-24T01:32:46.112Z,3.53
2022-11-24T01:35:12.814Z,3.54
2022-11-24T01:37:39.487Z,3.53
2022-11-24T01:40:07.156Z,3.17
2022-11-24T01:42:43.503Z,3.05
2022-11-24T01:45:42.411Z,3.12
2022-11-24T01:48:27.890Z,3.52
2022-11-24T01:51:12.082Z,3.58
2022-11-24T01:53:44.262Z,3.48
2022-11-24T01:56:12.790Z,3.54
2022-11-24T01:58:43.876Z,3.38
2022-11-24T02:01:11.577Z,3.54
2022-11-24T02:03:43.796Z,3.83
2022-11-24T02:06:15.740Z,4.25
2022-11-24T02:08:55.124Z,4.27
2022-11-24T02:11:24.433Z,4.20
2022-11-24T02:13:54.774Z,4.03
2022-11-24T02:16:22.089Z,4.34
2022-11-24T02:18:48.937Z,4.28
2022-11-24T02:21:16.668Z,4.43
2022-11-24T02:24:09.139Z,4.61
2022-11-24T02:26:41.276Z,4.37
2022-11-24T02:29:09.603Z,4.60
2022-11-24T02:31:36.568Z,4.95
2022-11-24T02:34:03.310Z,4.75
2022-11-24T02:36:30.004Z,4.62
2022-11-24T02:38:56.634Z,4.71
2022-11-24T02:41:27.745Z,4.73
2022-11-24T02:44:03.557Z,4.57
2022-11-24T02:46:30.222Z,4.58
2022-11-24T02:48:56.972Z,4.76
2022-11-24T02:51:23.544Z,4.79
2022-11-24T02:53:50.145Z,4.59
2022-11-24T02:56:16.887Z,4.78
2022-11-24T02:58:43.572Z,4.64
2022-11-24T03:01:10.252Z,4.68
2022-11-24T03:03:37.426Z,4.91
2022-11-24T03:06:04.122Z,4.83
2022-11-24T03:08:30.726Z,4.65
2022-11-24T03:10:57.344Z,5.11
2022-11-24T03:13:23.990Z,5.33
2022-11-24T03:15:50.611Z,4.97
2022-11-24T03:18:17.273Z,5.20
2022-11-24T03:20:43.921Z,4.83
2022-11-24T03:23:10.521Z,4.44
2022-11-24T03:25:37.140Z,4.24
2022-11-24T03:28:03.774Z,4.13
2022-11-24T03:30:30.447Z,4.22
2022-11-24T03:32:57.086Z,4.08
2022-11-24T03:35:24.605Z,3.90
2022-11-24T03:37:51.414Z,3.87
2022-11-24T03:40:18.096Z,3.92
2022-11-24T03:42:44.794Z,3.87
2022-11-24T03:45:38.135Z,3.87
2022-11-24T03:47:58.258Z,3.77
2022-11-24T03:50:24.904Z,3.60
2022-11-24T03:52:51.493Z,3.80
2022-11-24T03:55:18.108Z,3.60
2022-11-24T03:57:44.893Z,3.34
2022-11-24T04:00:11.951Z,3.69
2022-11-24T04:02:38.818Z,3.43
2022-11-24T04:05:06.100Z,3.36
2022-11-24T04:07:32.849Z,3.25
2022-11-24T04:09:59.591Z,3.52
2022-11-24T04:12:46.200Z,3.54
2022-11-24T04:15:23.381Z,3.41
2022-11-24T04:17:55.384Z,3.50
2022-11-24T04:20:22.652Z,3.51
2022-11-24T04:22:52.293Z,3.57
2022-11-24T04:25:18.963Z,3.47
2022-11-24T04:27:50.313Z,3.69
2022-11-24T04:30:17.320Z,3.66
2022-11-24T04:32:44.229Z,3.68
2022-11-24T04:35:11.099Z,3.78
2022-11-24T04:37:37.747Z,3.75
2022-11-24T04:40:06.293Z,3.65
2022-11-24T04:42:32.987Z,3.54
2022-11-24T04:44:59.802Z,3.50
2022-11-24T04:47:27.062Z,3.56
2022-11-24T04:49:54.939Z,3.63
2022-11-24T04:52:23.773Z,3.28
2022-11-24T04:54:51.291Z,3.50
2022-11-24T04:57:24.976Z,3.38
2022-11-24T04:59:52.836Z,3.33
2022-11-24T05:02:20.404Z,3.33
2022-11-24T05:04:47.589Z,3.20
2022-11-24T05:07:18.677Z,3.29
2022-11-24T05:09:59.014Z,3.02
2022-11-24T05:12:27.933Z,2.74
2022-11-24T05:14:54.507Z,2.95
2022-11-24T05:17:21.102Z,2.84
2022-11-24T05:19:47.715Z,2.99
2022-11-24T05:22:14.304Z,3.01
2022-11-24T05:24:40.909Z,2.89
2022-11-24T05:27:07.522Z,2.97
2022-11-24T05:29:34.148Z,2.89
2022-11-24T05:32:00.741Z,3.04
2022-11-24T05:34:27.301Z,3.03
2022-11-24T05:36:53.989Z,3.30
2022-11-24T05:39:21.579Z,3.11
2022-11-24T05:41:48.193Z,2.98
2022-11-24T05:44:14.805Z,2.94
2022-11-24T05:46:41.465Z,3.01
2022-11-24T05:49:08.119Z,2.80
2022-11-24T05:51:34.743Z,2.93
2022-11-24T05:54:01.315Z,3.04
2022-11-24T05:56:27.965Z,2.97
2022-11-24T05:58:54.563Z,2.91
2022-11-24T06:01:21.194Z,3.00
2022-11-24T06:03:47.769Z,3.21
2022-11-24T06:06:14.387Z,3.36
2022-11-24T06:08:41.297Z,3.07
2022-11-24T06:11:09.186Z,3.27
2022-11-24T06:13:35.977Z,3.29
2022-11-24T06:16:03.837Z,3.39
2022-11-24T06:18:30.474Z,3.38
2022-11-24T06:21:10.369Z,3.44
2022-11-24T06:23:37.668Z,3.47
2022-11-24T06:26:06.867Z,3.47
2022-11-24T06:28:33.521Z,3.52
2022-11-24T06:31:04.637Z,4.26
2022-11-24T06:33:35.981Z,4.80
2022-11-24T06:36:05.712Z,3.31
2022-11-24T06:38:32.497Z,3.28
2022-11-24T06:41:13.076Z,3.22
2022-11-24T06:43:39.841Z,3.12
2022-11-24T06:46:07.293Z,3.00
2022-11-24T06:48:34.424Z,3.18
2022-11-24T06:51:03.796Z,3.08
2022-11-24T06:53:34.771Z,3.01
2022-11-24T06:56:02.522Z,2.94
2022-11-24T06:58:29.190Z,2.71
2022-11-24T07:00:55.932Z,2.63
2022-11-24T07:03:23.067Z,2.46
2022-11-24T07:05:52.153Z,2.57
2022-11-24T07:08:18.858Z,2.62
2022-11-24T07:10:46.497Z,2.30
2022-11-24T07:13:13.369Z,2.38
2022-11-24T07:15:40.068Z,2.56
2022-11-24T07:18:06.765Z,2.49
2022-11-24T07:20:33.445Z,2.33
2022-11-24T07:23:00.071Z,2.31
2022-11-24T07:25:27.708Z,2.39
2022-11-24T07:28:00.708Z,2.37
2022-11-24T07:30:28.079Z,2.43
2022-11-24T07:33:04.370Z,2.63
2022-11-24T07:35:31.133Z,2.58
2022-11-24T07:37:59.000Z,2.61
2022-11-24T07:40:26.983Z,2.44
2022-11-24T07:42:54.397Z,2.16
2022-11-24T07:45:21.529Z,2.34
2022-11-24T07:47:48.111Z,2.51
2022-11-24T07:50:14.857Z,2.45
2022-11-24T07:52:41.468Z,2.51
2022-11-24T07:55:08.574Z,2.37
2022-11-24T07:57:35.444Z,2.22
2022-11-24T08:00:03.453Z,2.43
2022-11-24T08:02:30.492Z,2.20
2022-11-24T08:04:57.137Z,2.55
2022-11-24T08:07:23.853Z,2.62
2022-11-24T08:09:50.736Z,2.79
2022-11-24T08:12:17.422Z,2.69
2022-11-24T08:14:44.029Z,2.73
2022-11-24T08:17:10.708Z,2.66
2022-11-24T08:19:37.332Z,2.77
2022-11-24T08:22:03.936Z,2.67
2022-11-24T08:24:30.543Z,2.58
2022-11-24T08:26:57.228Z,2.65
2022-11-24T08:29:28.418Z,2.60
2022-11-24T08:31:58.478Z,2.52
2022-11-24T08:34:28.543Z,2.61
2022-11-24T08:36:55.145Z,2.49
2022-11-24T08:39:21.847Z,2.39
2022-11-24T08:41:48.495Z,2.42
2022-11-24T08:44:15.217Z,2.90
2022-11-24T08:46:41.992Z,2.57
2022-11-24T08:49:08.623Z,2.48
2022-11-24T08:51:35.516Z,2.28
2022-11-24T08:54:02.505Z,2.28
2022-11-24T08:56:31.568Z,2.30
2022-11-24T08:58:59.525Z,2.48
2022-11-24T09:01:27.494Z,2.26
2022-11-24T09:03:54.560Z,2.44
2022-11-24T09:06:24.625Z,3.00
2022-11-24T09:08:53.981Z,2.58
2022-11-24T09:11:21.019Z,2.54
2022-11-24T09:13:47.972Z,2.32
2022-11-24T09:16:19.354Z,2.26
2022-11-24T09:18:46.919Z,2.22
2022-11-24T09:21:19.636Z,1.95
2022-11-24T09:23:49.226Z,2.17
2022-11-24T09:26:24.814Z,2.04
2022-11-24T09:28:53.176Z,1.91
2022-11-24T09:31:21.343Z,1.93
2022-11-24T09:33:48.072Z,1.85
2022-11-24T09:36:14.899Z,2.06
2022-11-24T09:38:41.538Z,1.95
2022-11-24T09:41:38.080Z,1.89
2022-11-24T09:44:26.327Z,1.90
2022-11-24T09:47:07.819Z,2.01
2022-11-24T09:49:56.442Z,1.79
2022-11-24T09:52:35.644Z,2.03
2022-11-24T09:55:13.304Z,1.84
2022-11-24T09:57:43.891Z,2.41
2022-11-24T10:00:13.434Z,2.44
2022-11-24T10:02:40.213Z,2.31
2022-11-24T10:05:07.316Z,2.34
2022-11-24T10:08:01.325Z,2.58
2022-11-24T10:10:46.932Z,2.24
2022-11-24T10:13:30.338Z,2.35
2022-11-24T10:16:31.002Z,2.36
2022-11-24T10:19:18.980Z,2.07
2022-11-24T10:22:06.283Z,2.17
2022-11-24T10:24:58.657Z,2.27
2022-11-24T10:27:34.460Z,2.21
2022-11-24T10:30:02.097Z,2.27
2022-11-24T10:32:46.520Z,2.06
2022-11-24T10:35:15.755Z,2.07
2022-11-24T10:38:08.126Z,1.98
2022-11-24T10:40:57.545Z,2.31
2022-11-24T10:43:27.307Z,2.25
2022-11-24T10:46:00.406Z,2.14
2022-11-24T10:48:37.957Z,2.05
2022-11-24T10:51:28.621Z,1.96
2022-11-24T10:54:05.247Z,1.93
2022-11-24T10:56:41.954Z,2.10
2022-11-24T10:59:30.538Z,2.08
2022-11-24T11:01:58.663Z,2.06
2022-11-24T11:04:34.611Z,2.16
2022-11-24T11:07:20.429Z,2.10
2022-11-24T11:09:48.439Z,1.89
2022-11-24T11:12:43.989Z,2.10
2022-11-24T11:15:26.611Z,2.11
2022-11-24T11:17:58.629Z,2.03
2022-11-24T11:20:32.685Z,1.92
2022-11-24T11:23:14.367Z,1.88
2022-11-24T11:25:41.046Z,2.00
2022-11-24T11:28:30.976Z,1.93
2022-11-24T11:31:19.656Z,2.09
2022-11-24T11:34:04.173Z,1.94
2022-11-24T11:36:33.472Z,2.00
2022-11-24T11:39:00.500Z,1.96
2022-11-24T11:41:41.035Z,2.05
2022-11-24T11:44:28.609Z,2.30
2022-11-24T11:46:59.022Z,2.04
2022-11-24T11:49:25.797Z,2.10
2022-11-24T11:52:12.572Z,2.34
2022-11-24T11:55:01.098Z,1.96
2022-11-24T11:57:37.241Z,1.99
2022-11-24T12:00:15.581Z,1.96
2022-11-24T12:02:59.088Z,2.21
2022-11-24T12:05:47.310Z,2.00
2022-11-24T12:09:19.974Z,2.30
2022-11-24T12:12:18.510Z,1.89
2022-11-24T12:15:01.092Z,1.90
2022-11-24T12:17:54.456Z,1.90
2022-11-24T12:20:39.144Z,1.67
2022-11-24T12:23:17.823Z,1.91
2022-11-24T12:26:13.962Z,1.81
2022-11-24T12:29:15.798Z,1.73
2022-11-24T12:31:51.302Z,1.73
2022-11-24T12:34:36.493Z,1.82
2022-11-24T12:37:03.046Z,1.61
2022-11-24T12:40:06.625Z,1.63
2022-11-24T12:42:54.292Z,1.64
2022-11-24T12:45:33.741Z,1.73
2022-11-24T12:48:15.451Z,1.76
2022-11-24T12:50:46.124Z,1.86
2022-11-24T12:53:32.237Z,1.80
2022-11-24T12:56:07.401Z,1.74
2022-11-24T12:58:58.450Z,1.93
2022-11-24T13:01:57.356Z,1.88
2022-11-24T13:04:33.502Z,1.76
2022-11-24T13:07:11.064Z,1.66
2022-11-24T13:10:18.174Z,1.65
2022-11-24T13:13:06.712Z,1.51
2022-11-24T13:18:54.018Z,1.85
2022-11-24T13:21:43.678Z,1.80
2022-11-24T13:26:52.168Z,1.78
2022-11-24T13:29:25.523Z,1.70
2022-11-24T13:31:52.661Z,1.76
2022-11-24T13:34:41.195Z,1.86
2022-11-24T13:37:31.504Z,1.76
2022-11-24T13:40:31.164Z,1.70
2022-11-24T13:42:57.999Z,2.02
2022-11-24T13:45:39.864Z,1.96
2022-11-24T13:48:21.870Z,1.78
2022-11-24T13:50:52.276Z,1.75
2022-11-24T13:53:30.943Z,1.84
2022-11-24T13:56:22.224Z,1.81
2022-11-24T13:58:57.837Z,1.77
2022-11-24T14:01:26.372Z,1.84
2022-11-24T14:04:30.121Z,1.62
2022-11-24T14:07:08.264Z,1.92
2022-11-24T14:09:50.252Z,2.00
2022-11-24T14:12:22.837Z,1.96
2022-11-24T14:14:52.586Z,1.90
2022-11-24T14:17:28.839Z,1.71
2022-11-24T14:19:58.149Z,1.88
2022-11-24T14:22:31.928Z,1.97
2022-11-24T14:25:01.004Z,1.91
2022-11-24T14:27:38.763Z,1.92
2022-11-24T14:30:08.157Z,1.98
2022-11-24T14:32:34.802Z,1.97
2022-11-24T14:35:01.562Z,1.77
2022-11-24T14:37:28.429Z,2.13
2022-11-24T14:39:55.112Z,2.46
2022-11-24T14:42:27.315Z,2.46
2022-11-24T14:45:00.272Z,2.31
2022-11-24T14:47:32.761Z,2.55
2022-11-24T14:50:13.543Z,2.71
2022-11-24T14:52:54.157Z,2.36
2022-11-24T14:55:30.009Z,2.65
2022-11-24T14:57:57.628Z,2.62
2022-11-24T15:00:24.152Z,2.92
2022-11-24T15:03:07.233Z,2.31
2022-11-24T15:05:54.741Z,2.38
2022-11-24T15:08:24.691Z,2.74
2022-11-24T15:10:58.819Z,2.56
2022-11-24T15:13:26.740Z,2.70
2022-11-24T15:16:03.161Z,2.52
2022-11-24T15:18:35.774Z,2.49
2022-11-24T15:21:03.484Z,2.31
2022-11-24T15:23:32.232Z,2.41
2022-11-24T15:26:01.521Z,2.39
2022-11-24T15:28:30.293Z,2.09
2022-11-24T15:31:04.478Z,2.13
2022-11-24T15:33:31.559Z,4.85
2022-11-24T15:35:59.777Z,7.24
2022-11-24T15:38:26.709Z,9.42
2022-11-24T15:40:56.232Z,8.56
2022-11-24T15:43:33.728Z,6.63
2022-11-24T15:46:02.168Z,7.20
2022-11-24T15:48:29.620Z,6.83
2022-11-24T15:50:57.940Z,5.77
2022-11-24T15:53:30.308Z,4.93
2022-11-24T15:55:58.824Z,5.03
2022-11-24T15:58:27.472Z,4.11
2022-11-24T16:00:54.180Z,4.17
2022-11-24T16:06:24.719Z,4.03
2022-11-24T16:08:53.001Z,4.08
2022-11-24T16:11:19.856Z,3.90
2022-11-24T16:13:51.982Z,3.64
2022-11-24T16:16:19.662Z,3.20
2022-11-24T16:18:46.327Z,3.14
2022-11-24T16:21:13.104Z,2.67
2022-11-24T16:23:39.825Z,2.57
2022-11-24T16:26:06.805Z,2.13
2022-11-24T16:28:34.596Z,2.57
2022-11-24T16:31:01.403Z,2.31
2022-11-24T16:33:31.022Z,2.17
2022-11-24T16:35:57.656Z,2.26
2022-11-24T16:38:24.371Z,2.51
2022-11-24T16:40:55.120Z,2.51
2022-11-24T16:43:22.117Z,2.49
2022-11-24T16:46:09.049Z,2.38
2022-11-24T16:48:38.460Z,2.59
2022-11-24T16:51:07.189Z,2.87
2022-11-24T16:53:34.291Z,2.46
2022-11-24T16:56:00.909Z,2.50
2022-11-24T16:58:28.392Z,2.37
2022-11-24T17:00:55.157Z,2.51
2022-11-24T17:03:21.841Z,3.95
2022-11-24T17:05:58.596Z,8.92
2022-11-24T17:08:25.229Z,10.70
2022-11-24T17:10:52.295Z,14.46
2022-11-24T17:13:18.901Z,13.16
2022-11-24T17:15:51.001Z,22.08
2022-11-24T17:18:25.239Z,16.43
2022-11-24T17:20:52.355Z,14.12
2022-11-24T17:23:19.006Z,21.75
2022-11-24T17:25:45.662Z,12.19
2022-11-24T17:28:12.279Z,9.89
2022-11-24T17:30:38.889Z,9.61
2022-11-24T17:33:05.568Z,9.57
2022-11-24T17:35:34.039Z,6.13
2022-11-24T17:38:00.986Z,5.62
2022-11-24T17:40:29.362Z,3.58
2022-11-24T17:43:00.106Z,2.52
2022-11-24T17:45:28.208Z,3.05
2022-11-24T17:47:55.333Z,3.16
2022-11-24T17:50:25.650Z,3.00
2022-11-24T17:52:53.174Z,4.63
2022-11-24T17:55:19.851Z,4.03
2022-11-24T17:57:46.454Z,5.03
2022-11-24T18:00:13.841Z,6.59
2022-11-24T18:02:40.550Z,5.66
2022-11-24T18:05:07.536Z,4.81
2022-11-24T18:07:37.263Z,11.52
2022-11-24T18:10:04.314Z,12.32
2022-11-24T18:12:31.983Z,12.19
2022-11-24T18:14:58.608Z,13.77
2022-11-24T18:17:25.356Z,15.76
2022-11-24T18:19:51.973Z,16.20
2022-11-24T18:22:19.130Z,25.10
2022-11-24T18:24:53.886Z,32.98
2022-11-24T18:27:20.589Z,14.08
2022-11-24T18:29:49.840Z,8.78
2022-11-24T18:32:18.714Z,13.32
2022-11-24T18:34:45.331Z,12.43
2022-11-24T18:37:11.960Z,15.53
2022-11-24T18:39:38.745Z,11.96
2022-11-24T18:42:05.390Z,14.94
2022-11-24T18:44:34.809Z,15.34
2022-11-24T18:47:02.061Z,21.50
2022-11-24T18:49:28.802Z,12.60
2022-11-24T18:51:55.462Z,13.69
2022-11-24T18:54:22.126Z,11.66
2022-11-24T18:56:48.920Z,9.47
2022-11-24T18:59:15.539Z,7.07
2022-11-24T19:01:42.274Z,6.07
2022-11-24T19:04:09.792Z,6.05
2022-11-24T19:06:37.972Z,4.83
2022-11-24T19:09:08.221Z,5.75
2022-11-24T19:11:39.364Z,6.14
2022-11-24T19:14:08.273Z,6.17
2022-11-24T19:16:35.966Z,17.82
2022-11-24T19:19:03.024Z,26.07
2022-11-24T19:21:38.421Z,14.38
2022-11-24T19:24:09.308Z,15.69
2022-11-24T19:26:35.934Z,10.10
2022-11-24T19:29:04.452Z,9.43
2022-11-24T19:31:31.314Z,22.12
2022-11-24T19:34:01.304Z,25.89
2022-11-24T19:36:27.936Z,21.07
2022-11-24T19:38:56.402Z,8.54
2022-11-24T19:41:28.889Z,14.68
2022-11-24T19:43:56.046Z,6.64
2022-11-24T19:46:24.171Z,9.88
2022-11-24T19:48:51.485Z,22.19
2022-11-24T19:51:21.637Z,10.02
2022-11-24T19:53:48.345Z,10.97
2022-11-24T19:56:18.294Z,7.35
2022-11-24T19:58:45.467Z,8.49
2022-11-24T20:01:22.324Z,16.31
2022-11-24T20:03:55.936Z,11.81
2022-11-24T20:06:24.099Z,10.07
2022-11-24T20:08:51.021Z,9.10
2022-11-24T20:11:21.989Z,7.68
2022-11-24T20:13:49.098Z,5.87
2022-11-24T20:16:18.538Z,7.86
2022-11-24T20:18:53.415Z,11.54
2022-11-24T20:21:22.799Z,11.74
2022-11-24T20:23:58.419Z,9.94
2022-11-24T20:26:26.731Z,20.34
2022-11-24T20:28:55.705Z,16.36
2022-11-24T20:31:28.898Z,28.73
2022-11-24T20:33:56.028Z,19.70
2022-11-24T20:36:25.749Z,8.81
2022-11-24T20:38:53.458Z,7.59
2022-11-24T20:41:24.547Z,11.06
2022-11-24T20:43:54.800Z,11.61
2022-11-24T20:46:25.149Z,6.53
2022-11-24T20:48:53.711Z,9.90
2022-11-24T20:51:23.896Z,10.19
2022-11-24T20:53:53.648Z,11.58
2022-11-24T20:56:23.691Z,9.27
2022-11-24T20:58:51.336Z,7.06
2022-11-24T21:01:24.576Z,10.21
2022-11-24T21:03:55.008Z,8.26
2022-11-24T21:06:22.928Z,6.28
2022-11-24T21:08:49.643Z,7.37
2022-11-24T21:11:17.928Z,8.67
2022-11-24T21:13:46.049Z,6.66
2022-11-24T21:16:17.535Z,4.65
2022-11-24T21:18:46.236Z,4.97
2022-11-24T21:21:14.602Z,5.93
2022-11-24T21:23:41.401Z,5.76
2022-11-24T21:26:13.164Z,5.25
2022-11-24T21:28:44.567Z,5.04
2022-11-24T21:31:14.583Z,4.56
2022-11-24T21:33:43.720Z,4.08
2022-11-24T21:36:11.901Z,4.16
2022-11-24T21:38:38.650Z,4.90
2022-11-24T21:41:07.499Z,3.78
2022-11-24T21:43:35.023Z,4.12
2022-11-24T21:46:03.410Z,3.77
2022-11-24T21:48:31.597Z,3.72
2022-11-24T21:50:59.956Z,4.81
2022-11-24T21:53:29.712Z,3.76
2022-11-24T21:55:57.965Z,4.43
2022-11-24T21:58:26.140Z,3.86
2022-11-24T22:00:52.806Z,5.56
2022-11-24T22:03:20.799Z,4.37
2022-11-24T22:05:58.982Z,3.40
2022-11-24T22:08:27.478Z,3.61
2022-11-24T22:10:59.998Z,6.28
2022-11-24T22:13:26.596Z,10.07
2022-11-24T22:16:14.530Z,13.06
2022-11-24T22:18:42.867Z,8.01
2022-11-24T22:21:20.834Z,4.31
2022-11-24T22:23:51.267Z,6.02
2022-11-24T22:26:19.979Z,3.97
2022-11-24T22:28:47.436Z,3.34
2022-11-24T22:31:28.736Z,3.35
2022-11-24T22:33:57.335Z,3.51
2022-11-24T22:36:26.509Z,3.70
2022-11-24T22:38:59.305Z,3.20
2022-11-24T22:41:26.171Z,3.26
2022-11-24T22:43:53.979Z,3.17
2022-11-24T22:46:23.343Z,3.20
2022-11-24T22:48:52.539Z,2.86
2022-11-24T22:51:21.942Z,2.96
2022-11-24T22:53:51.224Z,2.79
2022-11-24T22:56:19.084Z,2.92
2022-11-24T22:58:46.514Z,4.09
2022-11-24T23:01:15.235Z,3.36
2022-11-24T23:03:42.555Z,2.85
2022-11-24T23:06:29.510Z,2.60
2022-11-24T23:08:58.096Z,2.55
2022-11-24T23:11:36.371Z,2.60
2022-11-24T23:14:06.389Z,2.65
2022-11-24T23:16:33.098Z,2.77
2022-11-24T23:18:59.827Z,2.83
2022-11-24T23:21:32.382Z,2.67
2022-11-24T23:24:01.688Z,3.06
2022-11-24T23:26:40.530Z,3.26
2022-11-24T23:29:08.130Z,3.50
2022-11-24T23:31:34.827Z,3.93
2022-11-24T23:34:03.661Z,3.84
2022-11-24T23:36:31.329Z,3.63
2022-11-24T23:39:11.384Z,3.33
2022-11-24T23:41:38.465Z,3.10
2022-11-24T23:44:05.171Z,3.28
2022-11-24T23:46:31.783Z,3.34
2022-11-24T23:48:59.437Z,3.22
2022-11-24T23:51:28.630Z,3.36
2022-11-24T23:53:56.398Z,3.41
2022-11-24T23:56:28.977Z,3.13
2022-11-24T23:58:57.697Z,3.10
